Time;durP1;ratioP1;P1;durP2;ratioP2;P2;SDS_P1;SDS_P2;PMS_P1;PMS_P2;Temp;Humidity;BMP_temperature;BMP_pressure;BME280_temperature;BME280_humidity;BME280_pressure;Samples;Min_cycle;Max_cycle;Signal;HPM_P1;HPM_P2
2022/09/29 00:01:32;;;;;;;5.43;3.70;;;7.00;99.90;;;;;;5056741;28;20060;-76
2022/09/29 00:03:57;;;;;;;4.22;3.83;;;7.10;99.90;;;;;;5054597;28;20045;-76
2022/09/29 00:06:23;;;;;;;4.43;4.00;;;7.00;99.90;;;;;;5091583;28;20044;-77
2022/09/29 00:08:49;;;;;;;3.92;3.63;;;7.00;99.90;;;;;;5055864;28;20060;-77
2022/09/29 00:11:17;;;;;;;4.30;4.00;;;7.50;99.90;;;;;;5088827;28;20057;-77
2022/09/29 00:13:45;;;;;;;4.05;3.38;;;7.00;99.90;;;;;;5053131;28;20046;-77
2022/09/29 00:16:11;;;;;;;3.78;3.47;;;7.10;99.90;;;;;;5055688;28;20040;-77
2022/09/29 00:18:37;;;;;;;4.70;4.22;;;7.10;99.90;;;;;;5057906;28;20139;-77
2022/09/29 00:21:09;;;;;;;4.22;3.80;;;7.30;99.90;;;;;;5056284;28;20044;-76
2022/09/29 00:23:35;;;;;;;22.38;8.23;;;7.10;99.90;;;;;;5055547;28;20041;-76
2022/09/29 00:26:12;;;;;;;11.80;6.57;;;7.10;99.90;;;;;;5057250;28;20047;-77
2022/09/29 00:28:41;;;;;;;4.13;3.58;;;7.10;99.90;;;;;;5057906;28;20409;-76
2022/09/29 00:31:09;;;;;;;5.68;4.05;;;7.40;99.90;;;;;;5054885;28;20775;-76
2022/09/29 00:33:38;;;;;;;4.22;3.83;;;7.00;99.90;;;;;;5055181;28;20655;-76
2022/09/29 00:36:12;;;;;;;3.60;3.30;;;7.00;99.90;;;;;;5054286;28;20040;-76
2022/09/29 00:38:39;;;;;;;6.32;4.57;;;7.00;99.90;;;;;;5053556;28;20305;-76
2022/09/29 00:41:05;;;;;;;6.20;4.43;;;7.10;99.90;;;;;;5052688;28;20130;-76
2022/09/29 00:43:51;;;;;;;5.00;4.35;;;7.60;99.90;;;;;;5056362;28;20776;-76
2022/09/29 00:46:25;;;;;;;5.53;5.00;;;6.90;99.90;;;;;;5053283;28;20111;-76
2022/09/29 00:48:52;;;;;;;4.30;4.00;;;6.90;99.90;;;;;;5059020;28;20044;-75
2022/09/29 00:51:19;;;;;;;5.93;4.82;;;6.90;99.90;;;;;;5057993;28;20371;-76
2022/09/29 00:53:46;;;;;;;4.75;4.35;;;6.90;99.90;;;;;;5058592;28;20401;-76
2022/09/29 00:56:15;;;;;;;5.50;4.53;;;7.00;99.90;;;;;;5057440;28;20040;-76
2022/09/29 00:58:55;;;;;;;4.95;4.45;;;6.80;99.90;;;;;;5063739;28;20082;-76
2022/09/29 01:01:27;;;;;;;4.65;4.28;;;6.80;99.90;;;;;;5056771;28;20850;-76
2022/09/29 01:03:57;;;;;;;6.53;5.53;;;6.80;99.90;;;;;;5056838;28;20056;-76
2022/09/29 01:06:32;;;;;;;14.45;8.20;;;6.80;99.90;;;;;;5059394;28;20040;-76
2022/09/29 01:09:12;;;;;;;5.20;4.70;;;7.30;99.90;;;;;;5057699;28;20055;-76
2022/09/29 01:11:39;;;;;;;5.72;5.22;;;6.80;99.90;;;;;;5060600;28;20063;-76
2022/09/29 01:14:08;;;;;;;5.53;5.03;;;6.80;99.90;;;;;;5048737;28;20051;-76
2022/09/29 01:16:36;;;;;;;6.95;5.82;;;6.80;99.90;;;;;;5048725;28;20028;-76
2022/09/29 01:19:07;;;;;;;5.47;4.55;;;6.80;99.90;;;;;;5058424;28;20522;-76
2022/09/29 01:21:43;;;;;;;5.13;4.63;;;6.90;99.90;;;;;;5051050;28;20535;-76
2022/09/29 01:24:39;;;;;;;7.35;6.53;;;6.80;99.90;;;;;;5053685;28;20440;-76
2022/09/29 01:27:50;;;;;;;6.05;5.55;;;6.90;99.90;;;;;;5054116;28;20056;-76
2022/09/29 01:30:28;;;;;;;6.60;6.00;;;6.90;99.90;;;;;;5047828;28;20056;-76
2022/09/29 01:33:33;;;;;;;6.70;5.60;;;7.00;99.90;;;;;;5057441;28;20059;-76
2022/09/29 01:36:17;;;;;;;4.97;4.57;;;7.00;99.90;;;;;;5051988;28;20130;-76
2022/09/29 01:39:04;;;;;;;8.23;6.75;;;7.00;99.90;;;;;;5041146;28;20157;-76
2022/09/29 01:41:34;;;;;;;5.47;4.97;;;7.00;99.90;;;;;;5046441;28;20525;-76
2022/09/29 01:44:13;;;;;;;7.35;5.85;;;6.90;99.90;;;;;;5055116;28;20401;-76
2022/09/29 01:46:45;;;;;;;5.97;5.38;;;6.90;99.90;;;;;;5052193;28;20059;-76
2022/09/29 01:49:12;;;;;;;6.63;6.03;;;6.90;99.90;;;;;;5057281;28;20220;-76
2022/09/29 01:51:50;;;;;;;6.05;5.35;;;6.80;99.90;;;;;;5053155;28;20444;-76
2022/09/29 01:54:30;;;;;;;6.35;5.75;;;6.90;99.90;;;;;;5055528;28;20490;-76
2022/09/29 01:57:09;;;;;;;6.40;4.97;;;6.80;99.90;;;;;;5053438;28;20048;-76
2022/09/29 02:00:08;;;;;;;6.72;6.03;;;6.80;99.90;;;;;;5047243;28;20044;-76
2022/09/29 02:02:55;;;;;;;10.55;5.13;;;6.80;99.90;;;;;;5050783;28;20528;-76
2022/09/29 02:05:41;;;;;;;5.70;5.10;;;6.90;99.90;;;;;;5053269;28;20056;-76
2022/09/29 02:08:15;;;;;;;5.45;4.90;;;6.70;99.90;;;;;;5046916;28;20056;-77
2022/09/29 02:10:49;;;;;;;6.28;5.68;;;6.50;99.90;;;;;;5039141;28;20243;-76
2022/09/29 02:13:16;;;;;;;5.35;4.75;;;6.80;99.90;;;;;;5057032;28;20048;-76
2022/09/29 02:15:47;;;;;;;4.50;4.10;;;7.40;99.90;;;;;;5058414;28;20119;-77
2022/09/29 02:18:20;;;;;;;7.00;5.68;;;6.80;99.90;;;;;;5054719;28;20044;-77
2022/09/29 02:20:48;;;;;;;5.85;5.32;;;6.70;99.90;;;;;;5051244;28;20386;-77
2022/09/29 02:23:14;;;;;;;4.68;3.72;;;6.80;99.90;;;;;;5055654;28;20660;-76
2022/09/29 02:25:40;;;;;;;5.63;5.13;;;6.80;99.90;;;;;;5051561;28;20048;-76
2022/09/29 02:28:07;;;;;;;5.88;5.38;;;6.80;99.90;;;;;;5056636;28;20044;-76
2022/09/29 02:30:34;;;;;;;5.60;5.10;;;6.80;99.90;;;;;;5090690;28;20771;-76
2022/09/29 02:33:00;;;;;;;6.65;4.82;;;6.80;99.90;;;;;;5052361;28;20659;-76
2022/09/29 02:35:39;;;;;;;9.05;6.47;;;6.80;99.90;;;;;;5055703;28;20799;-76
2022/09/29 02:38:38;;;;;;;5.75;5.15;;;6.80;99.90;;;;;;5051301;28;20452;-76
2022/09/29 02:41:44;;;;;;;8.85;6.47;;;6.80;99.90;;;;;;5052199;28;20044;-76
2022/09/29 02:44:31;;;;;;;5.85;5.35;;;6.70;99.90;;;;;;5047182;28;20094;-76
2022/09/29 02:47:34;;;;;;;5.07;4.57;;;6.70;99.90;;;;;;5055240;28;20135;-76
2022/09/29 02:50:12;;;;;;;6.45;5.80;;;6.60;99.90;;;;;;5053376;28;20155;-76
2022/09/29 02:52:57;;;;;;;8.35;5.70;;;6.60;99.90;;;;;;5052779;28;20154;-76
2022/09/29 02:55:36;;;;;;;13.80;5.78;;;6.60;99.90;;;;;;5059174;28;20040;-76
2022/09/29 02:58:12;;;;;;;19.35;8.88;;;6.60;99.90;;;;;;5061087;28;20098;-76
2022/09/29 03:00:38;;;;;;;5.45;4.72;;;6.60;99.90;;;;;;5056085;28;20052;-76
2022/09/29 03:03:04;;;;;;;7.25;6.07;;;6.50;99.90;;;;;;5061243;28;20231;-76
2022/09/29 03:05:30;;;;;;;6.80;6.07;;;6.50;99.90;;;;;;5053198;28;20887;-76
2022/09/29 03:07:56;;;;;;;5.43;4.93;;;6.40;99.90;;;;;;5057791;28;20618;-76
2022/09/29 03:10:21;;;;;;;5.15;4.65;;;6.40;99.90;;;;;;5057412;28;20052;-76
2022/09/29 03:12:47;;;;;;;6.43;5.82;;;6.70;99.90;;;;;;5055306;28;20102;-76
2022/09/29 03:15:13;;;;;;;6.70;6.00;;;6.50;99.90;;;;;;5056534;28;20084;-76
2022/09/29 03:17:39;;;;;;;6.28;5.70;;;6.50;99.90;;;;;;5056665;28;20044;-76
2022/09/29 03:20:05;;;;;;;6.97;6.32;;;6.50;99.90;;;;;;5057425;28;20041;-76
2022/09/29 03:22:31;;;;;;;6.50;6.00;;;6.50;99.90;;;;;;5059752;28;20064;-76
2022/09/29 03:24:57;;;;;;;6.57;5.88;;;6.50;99.90;;;;;;5056875;28;20095;-76
2022/09/29 03:27:22;;;;;;;8.00;7.03;;;6.50;99.90;;;;;;5059295;28;20048;-76
2022/09/29 03:29:49;;;;;;;5.40;4.90;;;6.50;99.90;;;;;;5053181;28;20044;-76
2022/09/29 03:32:15;;;;;;;6.43;5.80;;;6.50;99.90;;;;;;5055366;28;20051;-76
2022/09/29 03:34:41;;;;;;;6.47;5.80;;;6.60;99.90;;;;;;5050999;28;20048;-76
2022/09/29 03:37:07;;;;;;;6.18;5.68;;;6.60;99.90;;;;;;5061098;28;20041;-76
2022/09/29 03:39:32;;;;;;;6.50;5.80;;;6.50;99.90;;;;;;5052306;28;20060;-76
2022/09/29 03:41:59;;;;;;;6.53;5.75;;;6.50;99.90;;;;;;5055691;28;20055;-76
2022/09/29 03:44:24;;;;;;;5.03;4.63;;;6.50;99.90;;;;;;5057962;28;20603;-76
2022/09/29 03:46:50;;;;;;;16.45;7.63;;;6.50;99.90;;;;;;5053603;28;20053;-76
2022/09/29 03:49:16;;;;;;;7.10;6.40;;;6.40;99.90;;;;;;5057114;28;20037;-76
2022/09/29 03:51:43;;;;;;;5.85;5.25;;;6.40;99.90;;;;;;5048837;28;20059;-76
2022/09/29 03:54:09;;;;;;;6.97;6.28;;;6.50;99.90;;;;;;5059859;28;20036;-77
2022/09/29 03:56:36;;;;;;;5.75;5.20;;;6.30;99.90;;;;;;5056936;28;20044;-76
2022/09/29 03:59:04;;;;;;;5.90;5.32;;;6.30;99.90;;;;;;5057377;28;20151;-77
2022/09/29 04:01:30;;;;;;;6.53;5.93;;;6.20;99.90;;;;;;5057938;28;20123;-76
2022/09/29 04:03:57;;;;;;;6.90;4.63;;;6.50;99.90;;;;;;5082295;28;20498;-77
2022/09/29 04:06:22;;;;;;;6.05;5.55;;;6.20;99.90;;;;;;5058999;28;20047;-76
2022/09/29 04:08:49;;;;;;;6.50;5.78;;;6.10;99.90;;;;;;5058048;28;20049;-77
2022/09/29 04:11:14;;;;;;;6.53;5.90;;;6.20;99.90;;;;;;5061419;28;20080;-77
2022/09/29 04:13:40;;;;;;;6.95;6.25;;;6.30;99.90;;;;;;5052882;28;20874;-77
2022/09/29 04:16:06;;;;;;;5.88;5.25;;;6.00;99.90;;;;;;5060132;28;20062;-77
2022/09/29 04:18:32;;;;;;;5.00;4.50;;;6.10;99.90;;;;;;5055938;28;20041;-77
2022/09/29 04:20:59;;;;;;;6.55;5.85;;;6.00;99.90;;;;;;5057686;28;20040;-77
2022/09/29 04:23:28;;;;;;;6.13;5.53;;;5.90;99.90;;;;;;5059565;28;20118;-77
2022/09/29 04:25:54;;;;;;;5.95;5.30;;;5.90;99.90;;;;;;5059254;28;20076;-77
2022/09/29 04:28:20;;;;;;;6.97;5.47;;;5.90;99.90;;;;;;5052309;28;20777;-77
2022/09/29 04:30:46;;;;;;;6.00;5.30;;;5.80;99.90;;;;;;5053247;28;20052;-77
2022/09/29 04:33:11;;;;;;;7.00;6.35;;;5.80;99.90;;;;;;5056737;28;20773;-77
2022/09/29 04:35:37;;;;;;;6.05;5.50;;;5.80;99.90;;;;;;5054824;28;20813;-77
2022/09/29 04:38:03;;;;;;;5.75;4.78;;;5.90;99.90;;;;;;5055144;28;20813;-77
2022/09/29 04:40:29;;;;;;;10.57;4.85;;;6.00;99.90;;;;;;5058374;28;20052;-77
2022/09/29 04:42:54;;;;;;;5.72;4.82;;;5.80;99.90;;;;;;5087966;28;20151;-77
2022/09/29 04:45:20;;;;;;;11.77;7.15;;;5.80;99.90;;;;;;5056963;28;20739;-77
2022/09/29 04:47:46;;;;;;;5.60;5.10;;;5.90;99.90;;;;;;5058068;28;20045;-77
2022/09/29 04:50:12;;;;;;;18.35;8.52;;;5.90;99.90;;;;;;5057207;28;20397;-77
2022/09/29 04:52:40;;;;;;;29.63;9.13;;;6.10;99.90;;;;;;5052362;28;20936;-77
2022/09/29 04:55:10;;;;;;;32.63;9.18;;;6.00;99.90;;;;;;5055511;28;20049;-77
2022/09/29 04:57:36;;;;;;;42.80;8.50;;;6.00;99.90;;;;;;5055761;28;20454;-77
2022/09/29 05:00:03;;;;;;;40.20;8.38;;;6.00;99.90;;;;;;5056408;28;20048;-77
2022/09/29 05:02:29;;;;;;;19.08;7.28;;;6.00;99.90;;;;;;5056231;28;20127;-77
2022/09/29 05:04:54;;;;;;;9.65;5.88;;;5.90;99.90;;;;;;5052554;28;20077;-77
2022/09/29 05:07:20;;;;;;;7.57;6.53;;;5.90;99.90;;;;;;5055591;28;20845;-77
2022/09/29 05:09:45;;;;;;;8.50;7.60;;;5.90;99.90;;;;;;5056837;28;20044;-77
2022/09/29 05:12:11;;;;;;;8.63;7.72;;;5.80;99.90;;;;;;5056506;28;20045;-77
2022/09/29 05:14:37;;;;;;;9.68;7.35;;;6.20;99.90;;;;;;5082127;28;20044;-77
2022/09/29 05:17:02;;;;;;;7.70;6.90;;;5.90;99.90;;;;;;5053680;28;20040;-77
2022/09/29 05:19:30;;;;;;;7.93;7.22;;;5.80;99.90;;;;;;5050582;28;20831;-77
2022/09/29 05:21:55;;;;;;;11.48;10.27;;;5.90;99.90;;;;;;5053113;28;20865;-77
2022/09/29 05:24:21;;;;;;;10.30;9.40;;;5.90;99.90;;;;;;5053395;28;20032;-77
2022/09/29 05:26:47;;;;;;;8.73;7.35;;;4.80;99.90;;;;;;5054553;28;20489;-78
2022/09/29 05:29:12;;;;;;;7.35;6.65;;;5.90;99.90;;;;;;5056722;28;20595;-77
2022/09/29 05:31:38;;;;;;;7.32;6.65;;;5.90;99.90;;;;;;5053746;28;20094;-77
2022/09/29 05:34:03;;;;;;;7.40;6.70;;;5.80;99.90;;;;;;5054436;28;20066;-77
2022/09/29 05:36:30;;;;;;;5.75;5.20;;;5.80;99.90;;;;;;5068443;28;20052;-77
2022/09/29 05:38:55;;;;;;;9.00;8.13;;;5.80;99.90;;;;;;5054711;28;20533;-77
2022/09/29 05:41:22;;;;;;;7.32;6.70;;;6.00;99.90;;;;;;5054971;28;20580;-76
2022/09/29 05:43:52;;;;;;;8.63;7.78;;;5.80;99.90;;;;;;5052544;28;20131;-77
2022/09/29 05:46:18;;;;;;;8.20;7.40;;;5.80;99.90;;;;;;5056123;28;20113;-77
2022/09/29 05:48:50;;;;;;;9.35;7.03;;;5.90;99.90;;;;;;5052595;28;20826;-77
2022/09/29 05:51:19;;;;;;;8.10;7.32;;;6.10;99.90;;;;;;5050130;28;20079;-77
2022/09/29 05:53:45;;;;;;;7.40;6.68;;;5.90;99.90;;;;;;5050954;28;20072;-77
2022/09/29 05:56:13;;;;;;;8.55;7.70;;;5.90;99.90;;;;;;5054936;28;20040;-77
2022/09/29 05:58:40;;;;;;;8.68;7.78;;;6.00;99.90;;;;;;5054987;28;20044;-77
2022/09/29 06:01:14;;;;;;;7.55;6.85;;;6.00;99.90;;;;;;5053725;28;20040;-77
2022/09/29 06:03:40;;;;;;;8.07;6.95;;;6.10;99.90;;;;;;5054610;28;20048;-77
2022/09/29 06:06:11;;;;;;;9.82;8.45;;;6.10;99.90;;;;;;5083726;28;20254;-77
2022/09/29 06:08:37;;;;;;;10.88;9.68;;;6.10;99.90;;;;;;5054719;28;20635;-77
2022/09/29 06:11:09;;;;;;;10.27;9.23;;;6.20;99.90;;;;;;5054484;28;20041;-77
2022/09/29 06:13:40;;;;;;;9.52;8.27;;;6.20;99.90;;;;;;5048532;28;20114;-77
2022/09/29 06:16:06;;;;;;;9.05;8.15;;;6.30;99.90;;;;;;5049817;28;20045;-76
2022/09/29 06:18:32;;;;;;;8.95;8.05;;;6.30;99.90;;;;;;5047956;28;20056;-77
2022/09/29 06:21:07;;;;;;;8.25;7.53;;;6.60;99.90;;;;;;5051585;28;20452;-76
2022/09/29 06:23:33;;;;;;;9.43;8.48;;;6.50;99.90;;;;;;5050294;28;20141;-76
2022/09/29 06:26:03;;;;;;;10.05;9.15;;;6.80;99.90;;;;;;5050003;28;20055;-76
2022/09/29 06:28:30;;;;;;;10.07;8.98;;;6.80;99.90;;;;;;5054120;28;20040;-77
2022/09/29 06:31:02;;;;;;;10.10;8.15;;;6.80;99.90;;;;;;5051664;28;20126;-77
2022/09/29 06:33:28;;;;;;;8.85;8.05;;;5.80;99.90;;;;;;5047112;28;20094;-76
2022/09/29 06:38:39;;;;;;;9.65;8.38;;;6.80;99.90;;;;;;5051400;28;20604;-77
2022/09/29 06:41:06;;;;;;;9.00;8.10;;;6.90;99.90;;;;;;5053000;28;20051;-76
2022/09/29 06:43:31;;;;;;;11.20;8.95;;;6.90;99.90;;;;;;5052115;28;20178;-77
2022/09/29 06:45:58;;;;;;;9.60;8.52;;;6.90;99.90;;;;;;5050481;28;20072;-76
2022/09/29 06:48:24;;;;;;;7.60;6.82;;;7.00;99.90;;;;;;5050855;28;20277;-76
2022/09/29 06:50:50;;;;;;;9.15;8.25;;;7.00;99.90;;;;;;5084488;28;20830;-77
2022/09/29 06:53:16;;;;;;;9.13;8.23;;;7.10;99.90;;;;;;5052078;28;20089;-76
2022/09/29 06:55:42;;;;;;;9.25;8.45;;;7.20;99.90;;;;;;5053433;28;20044;-76
2022/09/29 06:58:08;;;;;;;7.95;7.13;;;7.20;99.90;;;;;;5051165;28;20489;-76
2022/09/29 07:00:34;;;;;;;9.00;8.10;;;7.20;99.90;;;;;;5051907;28;20044;-76
2022/09/29 07:03:00;;;;;;;9.13;8.32;;;7.30;99.90;;;;;;5050748;28;20044;-76
2022/09/29 07:05:25;;;;;;;8.68;7.97;;;7.20;99.90;;;;;;5053322;28;20052;-76
2022/09/29 07:07:52;;;;;;;9.20;8.30;;;7.30;99.90;;;;;;5051474;28;20051;-77
2022/09/29 07:10:18;;;;;;;8.98;7.75;;;7.50;99.90;;;;;;5050612;28;20133;-76
2022/09/29 07:12:45;;;;;;;10.52;8.85;;;7.50;99.90;;;;;;5047098;28;20070;-80
2022/09/29 07:15:12;;;;;;;9.95;8.93;;;7.50;99.90;;;;;;5044106;28;20135;-77
2022/09/29 07:17:37;;;;;;;6.78;6.07;;;7.60;99.90;;;;;;5042427;28;20048;-78
2022/09/29 07:20:04;;;;;;;7.38;6.68;;;7.70;99.90;;;;;;5047019;28;20634;-76
2022/09/29 07:22:29;;;;;;;11.07;9.00;;;7.80;99.90;;;;;;5042585;28;20090;-77
2022/09/29 07:24:55;;;;;;;8.23;7.43;;;7.90;99.90;;;;;;5047663;28;20052;-75
2022/09/29 07:27:23;;;;;;;10.05;9.00;;;8.00;99.90;;;;;;5051292;28;20060;-76
2022/09/29 07:29:52;;;;;;;12.30;8.85;;;8.00;99.90;;;;;;5059361;28;20048;-78
2022/09/29 07:32:18;;;;;;;9.32;7.72;;;8.10;99.90;;;;;;5048323;28;20056;-76
2022/09/29 07:34:44;;;;;;;9.00;8.10;;;8.10;99.90;;;;;;5046172;28;20183;-76
2022/09/29 07:37:11;;;;;;;11.80;9.40;;;8.20;99.90;;;;;;5056197;28;20401;-77
2022/09/29 07:39:36;;;;;;;9.55;8.30;;;8.30;99.90;;;;;;5048308;28;20683;-77
2022/09/29 07:42:02;;;;;;;9.40;7.13;;;8.40;99.90;;;;;;5059818;28;20054;-77
2022/09/29 07:44:30;;;;;;;8.77;7.88;;;8.50;99.90;;;;;;5057105;28;20163;-77
2022/09/29 07:46:56;;;;;;;8.98;8.05;;;8.70;99.90;;;;;;5046328;28;20057;-77
2022/09/29 07:49:22;;;;;;;8.48;6.97;;;8.90;99.90;;;;;;5060990;28;20056;-77
2022/09/29 07:51:48;;;;;;;8.50;7.63;;;9.00;99.90;;;;;;5061302;28;20529;-77
2022/09/29 07:54:14;;;;;;;7.20;6.50;;;9.30;99.90;;;;;;5060195;28;20123;-78
2022/09/29 07:56:39;;;;;;;6.10;5.60;;;9.60;99.90;;;;;;5059127;28;20542;-78
2022/09/29 07:59:05;;;;;;;5.63;5.03;;;10.00;99.90;;;;;;5060473;28;20050;-77
2022/09/29 08:01:31;;;;;;;6.30;5.70;;;10.50;99.90;;;;;;5092303;28;20447;-78
2022/09/29 08:03:57;;;;;;;6.35;5.70;;;11.00;99.90;;;;;;5051045;28;20120;-78
2022/09/29 08:06:24;;;;;;;7.13;5.68;;;12.20;99.90;;;;;;5055710;28;20354;-78
2022/09/29 08:08:50;;;;;;;7.95;6.68;;;13.50;99.90;;;;;;5092375;27;20056;-78
2022/09/29 08:11:21;;;;;;;5.45;5.05;;;14.70;99.90;;;;;;5058865;28;20052;-78
2022/09/29 08:13:49;;;;;;;7.07;5.60;;;15.80;99.90;;;;;;5054106;28;20560;-78
2022/09/29 08:16:15;;;;;;;5.68;5.07;;;16.30;99.90;;;;;;5045822;28;20053;-78
2022/09/29 08:18:42;;;;;;;5.13;4.72;;;17.20;99.90;;;;;;5049063;28;20801;-80
2022/09/29 08:21:09;;;;;;;5.07;4.55;;;17.70;99.90;;;;;;5049532;28;20087;-80
2022/09/29 08:23:37;;;;;;;5.60;5.00;;;18.10;99.90;;;;;;5048701;28;20048;-79
2022/09/29 08:26:08;;;;;;;5.03;4.55;;;18.60;99.90;;;;;;5042062;28;20568;-79
2022/09/29 08:28:36;;;;;;;5.45;4.68;;;18.40;99.90;;;;;;5048751;28;20112;-82
2022/09/29 08:31:06;;;;;;;4.70;4.30;;;18.60;99.90;;;;;;5057159;28;20067;-79
2022/09/29 08:33:33;;;;;;;5.00;4.15;;;18.80;99.90;;;;;;5057657;28;20072;-81
2022/09/29 08:36:00;;;;;;;5.10;4.63;;;19.30;99.90;;;;;;5056360;28;20053;-81
2022/09/29 08:38:26;;;;;;;6.32;5.00;;;19.30;99.90;;;;;;5057317;28;20111;-81
2022/09/29 08:40:54;;;;;;;5.97;5.05;;;19.80;99.90;;;;;;5055577;28;20048;-82
2022/09/29 08:43:31;;;;;;;5.60;4.97;;;20.40;99.90;;;;;;5055099;28;20087;-80
2022/09/29 08:46:21;;;;;;;5.20;4.72;;;21.00;99.90;;;;;;5053809;28;20060;-81
2022/09/29 08:48:49;;;;;;;4.68;4.13;;;21.50;99.90;;;;;;5087595;28;20791;-81
2022/09/29 08:51:38;;;;;;;5.00;4.35;;;21.60;99.90;;;;;;5055161;28;20821;-81
2022/09/29 08:54:19;;;;;;;4.85;4.40;;;21.70;93.90;;;;;;5054738;28;21431;-81
2022/09/29 08:56:45;;;;;;;5.82;5.32;;;21.70;98.90;;;;;;5054177;28;20041;-81
2022/09/29 08:59:10;;;;;;;4.88;4.47;;;21.60;98.60;;;;;;5057038;28;20927;-80
2022/09/29 09:02:24;;;;;;;5.78;5.22;;;22.00;98.10;;;;;;5087098;28;20044;-80
2022/09/29 09:04:55;;;;;;;5.13;4.63;;;22.20;91.70;;;;;;5052163;28;20091;-81
2022/09/29 09:07:41;;;;;;;5.63;4.65;;;22.40;97.10;;;;;;5052599;28;20049;-81
2022/09/29 09:10:09;;;;;;;5.40;4.88;;;22.50;95.30;;;;;;5050229;28;20071;-78
2022/09/29 09:13:09;;;;;;;3.60;3.30;;;22.60;96.20;;;;;;5051571;28;20044;-81
2022/09/29 09:15:43;;;;;;;4.28;3.60;;;22.70;90.30;;;;;;5051390;28;20608;-80
2022/09/29 09:18:36;;;;;;;4.25;3.72;;;22.70;92.60;;;;;;5043115;28;20044;-79
2022/09/29 09:21:38;;;;;;;4.35;3.80;;;23.10;91.10;;;;;;5042914;28;20052;-80
2022/09/29 09:24:17;;;;;;;3.80;3.50;;;23.20;90.60;;;;;;5043884;28;20044;-81
2022/09/29 09:26:44;;;;;;;3.40;3.10;;;23.80;92.50;;;;;;5049899;28;20122;-80
2022/09/29 09:29:23;;;;;;;4.35;2.92;;;23.90;93.10;;;;;;5056218;28;20140;-81
2022/09/29 09:32:10;;;;;;;4.70;3.65;;;23.70;91.10;;;;;;5057129;28;20117;-80
2022/09/29 09:35:00;;;;;;;2.67;2.47;;;23.70;87.20;;;;;;5054104;28;20052;-79
2022/09/29 09:37:40;;;;;;;4.28;2.65;;;23.60;85.10;;;;;;5056691;28;20051;-82
2022/09/29 09:40:17;;;;;;;3.65;2.60;;;23.60;90.00;;;;;;5049970;28;20711;-78
2022/09/29 09:42:49;;;;;;;2.78;2.50;;;23.40;87.40;;;;;;5056880;28;20044;-79
2022/09/29 09:45:40;;;;;;;2.40;2.20;;;23.40;91.10;;;;;;5049115;28;20071;-78
2022/09/29 09:48:36;;;;;;;2.90;2.63;;;23.70;91.20;;;;;;5040131;28;20091;-80
2022/09/29 09:51:38;;;;;;;2.53;2.30;;;23.30;90.30;;;;;;5043593;28;20343;-78
2022/09/29 09:54:12;;;;;;;1.80;1.70;;;23.10;85.60;;;;;;5053632;28;20910;-78
2022/09/29 09:56:51;;;;;;;3.05;1.88;;;22.90;89.80;;;;;;5055884;28;20060;-73
2022/09/29 09:59:30;;;;;;;2.28;1.52;;;23.20;90.20;;;;;;5052283;28;20109;-80
2022/09/29 10:01:57;;;;;;;1.70;1.60;;;23.00;89.80;;;;;;5052421;28;20405;-79
2022/09/29 10:04:24;;;;;;;3.55;1.73;;;23.30;90.10;;;;;;5055614;28;20063;-81
2022/09/29 10:06:51;;;;;;;1.92;1.13;;;23.50;87.40;;;;;;5052413;28;20072;-78
2022/09/29 10:09:17;;;;;;;1.20;1.10;;;23.70;87.60;;;;;;5054585;28;20652;-78
2022/09/29 10:11:44;;;;;;;1.70;1.60;;;23.80;88.10;;;;;;5042230;28;20732;-80
2022/09/29 10:14:21;;;;;;;2.53;1.60;;;23.90;85.30;;;;;;5056376;28;20055;-78
2022/09/29 10:17:11;;;;;;;1.58;1.30;;;23.90;82.90;;;;;;5049707;28;20044;-80
2022/09/29 10:19:55;;;;;;;1.33;1.20;;;24.30;86.30;;;;;;5049960;28;20059;-78
2022/09/29 10:22:20;;;;;;;1.25;1.10;;;24.60;76.80;;;;;;5051368;28;20102;-78
2022/09/29 10:24:46;;;;;;;2.05;1.13;;;25.00;83.40;;;;;;5050978;28;20044;-80
2022/09/29 10:27:19;;;;;;;1.27;1.00;;;25.20;83.30;;;;;;5052886;28;20044;-79
2022/09/29 10:29:49;;;;;;;1.83;1.25;;;25.10;80.00;;;;;;5051263;28;20105;-80
2022/09/29 10:32:35;;;;;;;1.10;1.10;;;24.70;81.20;;;;;;5053506;28;20041;-78
2022/09/29 10:35:07;;;;;;;1.30;1.00;;;23.80;81.30;;;;;;5053084;28;20044;-79
2022/09/29 10:37:35;;;;;;;;;;;23.00;81.90;;;;;;5052230;28;20045;-78
2022/09/29 10:40:16;;;;;;;1.02;0.80;;;21.20;82.60;;;;;;5051856;28;19971;-79
2022/09/29 10:42:47;;;;;;;1.77;1.10;;;20.00;86.60;;;;;;5050782;28;20048;-78
2022/09/29 10:45:24;;;;;;;1.42;1.00;;;19.30;91.40;;;;;;5053029;28;20186;-80
2022/09/29 10:48:03;;;;;;;1.88;0.80;;;18.60;92.20;;;;;;5052113;28;20080;-79
2022/09/29 10:50:31;;;;;;;0.63;0.63;;;18.00;93.60;;;;;;5037484;28;20575;-79
2022/09/29 10:52:59;;;;;;;1.55;0.80;;;17.50;93.70;;;;;;5051279;28;20047;-78
2022/09/29 10:55:29;;;;;;;2.42;0.93;;;17.20;94.30;;;;;;5039640;28;20934;-78
2022/09/29 10:57:58;;;;;;;1.73;1.00;;;17.00;94.30;;;;;;5037163;28;20151;-77
2022/09/29 11:00:38;;;;;;;1.13;1.08;;;16.80;94.80;;;;;;5050844;28;20045;-77
2022/09/29 11:03:26;;;;;;;1.10;1.10;;;16.70;95.10;;;;;;5048709;28;20057;-77
2022/09/29 11:06:08;;;;;;;1.30;1.00;;;16.50;95.70;;;;;;5047019;28;20075;-78
2022/09/29 11:08:57;;;;;;;1.77;0.85;;;16.50;95.70;;;;;;5051510;28;20040;-79
2022/09/29 11:11:50;;;;;;;2.65;1.45;;;16.40;96.40;;;;;;5048032;28;20100;-79
2022/09/29 11:14:23;;;;;;;1.52;1.33;;;16.30;95.70;;;;;;5040559;28;20131;-77
2022/09/29 11:16:54;;;;;;;;;;;16.30;96.60;;;;;;5041712;28;20462;-79
2022/09/29 11:19:20;;;;;;;1.63;1.30;;;16.30;97.60;;;;;;5048888;28;20065;-78
2022/09/29 11:22:25;;;;;;;1.63;1.17;;;16.30;96.60;;;;;;5055226;28;20057;-79
2022/09/29 11:25:32;;;;;;;1.38;0.95;;;16.50;97.20;;;;;;5018655;28;20048;-77
2022/09/29 11:28:36;;;;;;;2.00;1.20;;;16.50;96.80;;;;;;5055928;28;20056;-79
2022/09/29 11:31:27;;;;;;;1.02;0.93;;;16.50;97.30;;;;;;5068357;28;20056;-76
2022/09/29 11:34:11;;;;;;;2.13;1.00;;;16.50;97.00;;;;;;5046328;28;20061;-77
2022/09/29 11:37:11;;;;;;;2.17;1.58;;;16.60;97.20;;;;;;5050978;28;20052;-78
2022/09/29 11:40:03;;;;;;;0.80;0.80;;;16.70;96.80;;;;;;5048555;28;20049;-78
2022/09/29 11:43:02;;;;;;;1.70;0.70;;;16.60;96.60;;;;;;5049747;28;20072;-77
2022/09/29 11:45:40;;;;;;;1.02;0.90;;;16.60;96.90;;;;;;5051664;28;20502;-78
2022/09/29 11:48:39;;;;;;;1.45;1.35;;;16.50;96.80;;;;;;5058288;28;20048;-77
2022/09/29 11:51:28;;;;;;;0.68;0.60;;;16.50;96.40;;;;;;5057443;28;20049;-77
2022/09/29 11:54:15;;;;;;;0.80;0.80;;;16.60;96.00;;;;;;5047589;28;20497;-77
2022/09/29 11:56:59;;;;;;;0.60;0.60;;;16.70;95.70;;;;;;5056856;28;20052;-77
2022/09/29 11:59:59;;;;;;;1.35;0.60;;;16.90;95.10;;;;;;5052022;28;20181;-77
2022/09/29 12:02:34;;;;;;;1.02;0.52;;;17.00;96.10;;;;;;5047226;28;20122;-76
2022/09/29 12:05:06;;;;;;;0.52;0.52;;;17.00;96.50;;;;;;5053535;28;20344;-76
2022/09/29 12:07:40;;;;;;;0.93;0.75;;;17.00;95.10;;;;;;5056903;28;20098;-76
2022/09/29 12:10:17;;;;;;;1.33;0.95;;;16.90;95.10;;;;;;5051194;28;20052;-77
2022/09/29 12:13:19;;;;;;;1.08;0.63;;;17.00;95.10;;;;;;5053491;28;20520;-76
2022/09/29 12:16:02;;;;;;;2.70;0.77;;;17.10;95.70;;;;;;5052773;28;20139;-77
2022/09/29 12:18:59;;;;;;;1.08;0.50;;;17.20;95.00;;;;;;5055346;28;20068;-77
2022/09/29 12:21:41;;;;;;;0.52;0.50;;;17.40;95.30;;;;;;5026878;28;20389;-77
2022/09/29 12:24:48;;;;;;;0.45;0.45;;;17.60;95.10;;;;;;5053756;28;20051;-77
2022/09/29 12:27:21;;;;;;;0.82;0.80;;;17.80;94.10;;;;;;5053939;28;20464;-76
2022/09/29 12:29:56;;;;;;;0.82;0.70;;;17.80;93.80;;;;;;5054049;28;20044;-76
2022/09/29 12:32:30;;;;;;;0.55;0.50;;;17.90;93.30;;;;;;5053743;28;20051;-77
2022/09/29 12:35:22;;;;;;;0.82;0.68;;;17.90;93.20;;;;;;5054676;28;20566;-76
2022/09/29 12:37:59;;;;;;;0.57;0.52;;;17.90;92.70;;;;;;5053596;28;20477;-75
2022/09/29 12:40:35;;;;;;;0.50;0.50;;;18.00;93.50;;;;;;5053485;28;20057;-76
2022/09/29 12:43:14;;;;;;;0.73;0.65;;;17.80;93.00;;;;;;5052742;28;20056;-76
2022/09/29 12:46:07;;;;;;;0.60;0.60;;;17.70;93.70;;;;;;5052035;28;20056;-74
2022/09/29 12:49:01;;;;;;;0.85;0.85;;;17.60;92.40;;;;;;5053676;28;20438;-74
2022/09/29 12:51:48;;;;;;;1.27;0.43;;;17.50;93.40;;;;;;5054266;28;20822;-76
2022/09/29 12:54:56;;;;;;;0.50;0.50;;;17.50;93.00;;;;;;5060236;28;20040;-75
2022/09/29 12:57:33;;;;;;;0.95;0.55;;;17.40;94.30;;;;;;5044910;28;20932;-75
2022/09/29 13:00:08;;;;;;;0.70;0.70;;;17.20;94.20;;;;;;5049912;28;20109;-75
2022/09/29 13:03:15;;;;;;;1.33;0.65;;;17.20;94.70;;;;;;5051804;28;20083;-75
2022/09/29 13:05:54;;;;;;;2.00;0.93;;;17.00;94.50;;;;;;5048239;28;20096;-75
2022/09/29 13:08:40;;;;;;;0.70;0.70;;;16.90;94.70;;;;;;5050947;28;20056;-74
2022/09/29 13:11:18;;;;;;;0.32;0.32;;;16.80;95.20;;;;;;5083392;28;20059;-76
2022/09/29 13:14:06;;;;;;;0.70;0.68;;;16.90;96.00;;;;;;5050667;28;20806;-75
2022/09/29 13:17:05;;;;;;;1.02;0.60;;;17.00;96.20;;;;;;5053612;28;20863;-73
2022/09/29 13:19:48;;;;;;;1.00;0.60;;;16.90;95.70;;;;;;5057260;28;20741;-75
2022/09/29 13:22:35;;;;;;;1.92;0.70;;;16.80;95.30;;;;;;5047938;28;20102;-75
2022/09/29 13:25:12;;;;;;;3.78;0.80;;;16.60;94.90;;;;;;5050692;28;20139;-76
2022/09/29 13:27:44;;;;;;;0.90;0.70;;;16.60;95.80;;;;;;5048600;28;20143;-76
2022/09/29 13:30:15;;;;;;;0.93;0.57;;;16.60;96.20;;;;;;5055625;28;20048;-76